Airfield :
LOGIN :

Register | Disclaimer

   EN    FR    IT 

 










Legend :    VFR   Marginal VFR   IFR   Intensive IFR   Very Intensive IFR
Visi :
Ceiling :
>= 8 km
>= 3000ft
5 to 8 km
1000 to 3000 ft
1500m to 5 km
500 to 1000 ft
800 to 1500m
200 to 500 ft
< 800m
< 200 ft
Symbols :   Thunderstorms  Fog  Heavy snow  Heavy precipitations  Wind > 20 kt
SIGMETs :     Misc.  Thunderstorms  Icing  Turbulence  Mountain Waves  Volcanic Ashes






- Airport Elevation : 2776 ft
- IATA code : VLL


LEVD - Valladolid

CURRENT METAR :
  • 181700Z 18007KT 130V220 9999 BKN013 16/12 Q1013 NOSIG

EXPIRED METARs :
  • 181630Z 16009KT 110V230 9999 FEW014 SCT030TCU 16/13 Q1013 NOSIG
  • 181600Z 16007KT 9999 FEW022 SCT035TCU 14/12 Q1013 NOSIG
  • 181530Z 14006KT 110V190 9999 FEW030 SCT035TCU 14/12 Q1013 NOSIG
  • 181500Z 19007KT 140V210 9999 SCT030 SCT048 15/12 Q1013 NOSIG
  • 181430Z 23005KT 200V260 9999 SCT028 SCT048 14/12 Q1014 NOSIG
  • 181400Z 26007KT 8000 -RA SCT026 SCT041 13/12 Q1014 NOSIG
  • 181330Z 27009KT 240V300 9999 -SHRA FEW010 SCT020TCU 13/12 Q1014 NOSIG
  • 181300Z 26011KT 230V290 9999 -SHRA SCT007 SCT020TCU 14/12 Q1014 NOSIG
  • 181230Z 25011KT 9999 -SHRA SCT013 SCT021TCU 15/12 Q1014 NOSIG

TAF TAF LEVD
Valid from the 18 at 15:00 until the 19 at 15:00 UTC


181400Z 1815/1915 25006KT 9999 SCT030 TX21/1915Z TN09/1905Z
TEMPO 1815/1822 4000 RA SHRA SCT020TCU
PROB30
TEMPO 1815/1818 VRB10G20KT 2500 TSRA BKN008 SCT020CB
PROB40
TEMPO 1904/1910 BKN006
PROB30
TEMPO 1905/1908 0400 FG OVC002
PROB40
TEMPO 1909/1915 SCT025TCU



MET'MAP, your aeronautical weather chart ! - Copyright ORBIFLY December 2007 - Disclaimer

ORBIFLY MET'MAP TEAM :

Programming & Development : Alexandra Zaïnal
Original concept : Baudouin d'Aumeries
Technical & hardware support : Manuel Goepfert
Assistance : Marc-Olivier Méhu




SOURCES & CREDITS :

   NOAA